Terminal Aerodrome Forecast
Issued by NWS

Current Version | Previous Version | Graphics & Text | Print | Product List | Glossary On
Versions: 1 2 3 4 5 6 7 8 9 10 11 12 13 14 15 16 17 18 19 20 21
000
FTUS41 KILN 260200 AAA
TAFLCK
TAF AMD
KLCK 260208Z 2602/2624 02006KT 2SM -SN OVC005
      TEMPO 2604/2608 1/2SM SN OVC002
     FM261000 36014G20KT 5SM -SN OVC015
     FM261300 34011KT P6SM OVC012=

USA.gov is the U.S. government's official web portal to all federal, state and local government web resources and services.